Time;durP1;ratioP1;P1;durP2;ratioP2;P2;SDS_P1;SDS_P2;PMS_P1;PMS_P2;Temp;Humidity;BMP_temperature;BMP_pressure;BME280_temperature;BME280_humidity;BME280_pressure;Samples;Min_cycle;Max_cycle;Signal;HPM_P1;HPM_P2
2022/07/14 00:01:40;;;;;;;3.75;1.80;;;22.00;3.60;;;;;;5051094;28;34082;-76
2022/07/14 00:04:06;;;;;;;5.47;1.95;;;21.90;3.70;;;;;;5044784;28;34214;-76
2022/07/14 00:06:33;;;;;;;2.30;1.90;;;21.90;3.80;;;;;;5028755;28;34461;-76
2022/07/14 00:09:00;;;;;;;5.13;1.90;;;21.80;3.90;;;;;;5028293;28;36078;-76
2022/07/14 00:11:25;;;;;;;2.20;1.98;;;21.80;4.00;;;;;;5044888;28;34430;-76
2022/07/14 00:13:52;;;;;;;3.20;2.05;;;21.80;4.10;;;;;;5044024;28;34401;-76
2022/07/14 00:16:17;;;;;;;2.15;1.88;;;21.80;4.20;;;;;;5045217;28;34392;-76
2022/07/14 00:18:43;;;;;;;2.35;2.15;;;21.70;4.30;;;;;;5062284;28;35098;-77
2022/07/14 00:21:12;;;;;;;2.45;1.80;;;21.70;4.30;;;;;;5044364;28;34284;-77
2022/07/14 00:23:37;;;;;;;2.28;1.92;;;21.70;4.90;;;;;;5044726;28;34083;-77
2022/07/14 00:26:04;;;;;;;2.00;1.80;;;21.60;4.40;;;;;;5044816;28;34154;-77
2022/07/14 00:28:30;;;;;;;2.22;1.98;;;21.60;4.60;;;;;;5062414;27;34765;-77
2022/07/14 00:30:56;;;;;;;2.33;2.13;;;21.60;4.60;;;;;;5044789;28;34292;-77
2022/07/14 00:33:22;;;;;;;3.70;2.13;;;21.50;4.70;;;;;;5062226;28;34078;-77
2022/07/14 00:35:48;;;;;;;3.17;1.90;;;21.50;4.80;;;;;;5027930;28;34522;-76
2022/07/14 00:38:13;;;;;;;2.35;1.80;;;21.40;4.80;;;;;;5044401;28;36734;-77
2022/07/14 00:40:39;;;;;;;4.32;2.20;;;21.30;4.90;;;;;;5044540;28;34068;-76
2022/07/14 00:43:05;;;;;;;2.53;1.80;;;21.30;5.10;;;;;;5044470;27;34255;-76
2022/07/14 00:45:31;;;;;;;2.45;2.00;;;21.30;5.10;;;;;;5044778;28;34449;-76
2022/07/14 00:47:57;;;;;;;2.22;2.03;;;21.20;5.20;;;;;;5028130;28;36417;-76
2022/07/14 00:50:23;;;;;;;2.72;1.65;;;21.20;5.30;;;;;;5044583;28;34315;-76
2022/07/14 00:52:50;;;;;;;2.63;1.67;;;21.20;5.40;;;;;;5044258;28;34466;-77
2022/07/14 00:55:17;;;;;;;4.90;2.20;;;21.10;5.50;;;;;;5044316;28;34527;-76
2022/07/14 00:57:43;;;;;;;2.08;1.95;;;21.10;5.70;;;;;;5044707;28;36208;-76
2022/07/14 01:00:12;;;;;;;4.10;2.03;;;21.10;5.70;;;;;;5044738;28;34160;-76
2022/07/14 01:02:38;;;;;;;2.08;1.90;;;21.10;6.10;;;;;;5044862;28;34392;-76
2022/07/14 01:05:05;;;;;;;2.20;2.00;;;21.00;5.80;;;;;;5044797;28;34522;-77
2022/07/14 01:07:31;;;;;;;2.85;2.08;;;21.00;5.90;;;;;;5061825;28;34969;-77
2022/07/14 01:09:57;;;;;;;2.35;2.15;;;21.00;6.00;;;;;;5043826;28;34183;-76
2022/07/14 01:12:23;;;;;;;2.15;1.95;;;21.00;6.10;;;;;;5062814;28;34201;-75
2022/07/14 01:14:49;;;;;;;5.25;2.15;;;21.00;6.20;;;;;;5044725;28;34465;-76
2022/07/14 01:17:15;;;;;;;2.22;2.03;;;20.90;6.40;;;;;;5044243;28;35742;-76
2022/07/14 01:19:41;;;;;;;2.15;1.98;;;20.80;6.40;;;;;;5044236;28;34150;-76
2022/07/14 01:22:07;;;;;;;3.28;1.77;;;20.80;6.60;;;;;;5044359;28;34420;-76
2022/07/14 01:24:34;;;;;;;4.45;2.50;;;20.80;6.70;;;;;;5044628;28;34406;-76
2022/07/14 01:27:00;;;;;;;3.63;2.40;;;20.80;6.80;;;;;;5061247;28;34331;-77
2022/07/14 01:29:26;;;;;;;2.20;2.00;;;20.70;6.90;;;;;;5027573;28;34384;-76
2022/07/14 01:31:52;;;;;;;2.10;1.90;;;20.70;7.00;;;;;;5028090;28;34160;-76
2022/07/14 01:34:19;;;;;;;2.40;2.20;;;20.70;7.10;;;;;;5044563;28;34402;-76
2022/07/14 01:36:45;;;;;;;3.05;2.30;;;20.60;7.10;;;;;;5043377;28;35791;-76
2022/07/14 01:39:12;;;;;;;2.47;2.05;;;20.60;7.20;;;;;;5043665;28;34227;-76
2022/07/14 01:41:38;;;;;;;1.98;1.88;;;20.60;7.30;;;;;;5043667;28;34350;-76
2022/07/14 01:44:04;;;;;;;4.40;2.10;;;20.60;7.40;;;;;;5043824;27;34345;-76
2022/07/14 01:46:30;;;;;;;3.67;2.00;;;20.50;7.50;;;;;;5043688;28;35883;-77
2022/07/14 01:48:56;;;;;;;2.65;2.03;;;20.60;7.50;;;;;;5061435;28;34063;-76
2022/07/14 01:51:21;;;;;;;2.80;2.03;;;20.50;7.60;;;;;;5043982;28;34340;-76
2022/07/14 01:53:48;;;;;;;2.85;2.28;;;20.50;7.60;;;;;;5027651;28;34221;-76
2022/07/14 01:56:14;;;;;;;2.25;2.05;;;20.60;7.70;;;;;;5062027;28;34898;-76
2022/07/14 01:58:40;;;;;;;1.95;1.83;;;20.50;7.80;;;;;;5043960;28;34061;-76
2022/07/14 02:04:02;;;;;;;2.47;2.08;;;20.50;9.60;;;;;;5033006;28;34045;-76
2022/07/14 02:06:29;;;;;;;2.33;2.13;;;20.50;7.90;;;;;;5027244;28;35609;-76
2022/07/14 02:08:56;;;;;;;2.33;2.13;;;20.50;7.90;;;;;;5043673;28;34211;-76
2022/07/14 02:14:03;;;;;;;2.35;2.15;;;20.50;8.00;;;;;;5060905;28;34238;-76
2022/07/14 02:16:30;;;;;;;2.47;2.03;;;20.50;8.10;;;;;;5061707;28;34291;-76
2022/07/14 02:18:57;;;;;;;2.30;2.10;;;20.50;8.10;;;;;;5043501;28;34423;-76
2022/07/14 02:21:24;;;;;;;2.65;1.90;;;20.50;8.20;;;;;;5043763;28;34130;-76
2022/07/14 02:23:51;;;;;;;3.15;2.20;;;20.50;8.30;;;;;;5043418;28;34072;-76
2022/07/14 02:26:17;;;;;;;2.92;2.03;;;20.40;8.30;;;;;;5026410;28;36485;-76
2022/07/14 02:28:43;;;;;;;3.55;2.30;;;20.50;8.40;;;;;;5026570;28;34180;-77
2022/07/14 02:31:10;;;;;;;4.25;2.55;;;20.40;8.40;;;;;;5023549;27;34368;-76
2022/07/14 02:33:37;;;;;;;3.50;2.30;;;20.40;8.50;;;;;;5023410;28;34392;-76
2022/07/14 02:36:04;;;;;;;2.20;2.00;;;20.40;8.70;;;;;;5007235;28;36110;-76
2022/07/14 02:38:31;;;;;;;2.40;2.20;;;20.30;8.80;;;;;;5039138;28;33997;-76
2022/07/14 02:40:57;;;;;;;3.05;2.08;;;20.30;8.90;;;;;;5023052;28;34222;-76
2022/07/14 02:43:23;;;;;;;1.70;1.60;;;20.30;9.00;;;;;;5023969;28;34163;-76
2022/07/14 02:45:49;;;;;;;2.30;2.05;;;20.30;9.00;;;;;;5023328;28;35638;-76
2022/07/14 02:48:16;;;;;;;4.75;2.00;;;20.30;9.10;;;;;;5041262;28;34301;-76
2022/07/14 02:50:42;;;;;;;2.90;2.17;;;20.30;9.10;;;;;;5040554;28;34080;-76
2022/07/14 02:53:08;;;;;;;2.70;2.38;;;20.30;9.10;;;;;;5007362;28;34162;-76
2022/07/14 02:55:36;;;;;;;2.13;1.92;;;20.30;9.20;;;;;;5040775;28;35023;-76
2022/07/14 02:58:03;;;;;;;4.78;2.30;;;20.30;9.50;;;;;;5006854;28;34165;-76
2022/07/14 03:00:30;;;;;;;4.38;2.38;;;20.20;9.10;;;;;;5041036;28;34164;-76
2022/07/14 03:02:57;;;;;;;1.95;1.80;;;20.30;9.30;;;;;;5022948;28;34122;-76
2022/07/14 03:05:23;;;;;;;2.47;2.17;;;20.20;9.30;;;;;;5023170;28;36625;-76
2022/07/14 03:07:50;;;;;;;2.30;2.10;;;20.20;9.40;;;;;;5023056;28;34170;-76
2022/07/14 03:10:16;;;;;;;4.10;2.22;;;20.20;9.50;;;;;;5023082;28;34163;-76
2022/07/14 03:12:42;;;;;;;3.38;2.08;;;20.20;9.50;;;;;;5040338;28;34217;-76
2022/07/14 03:15:08;;;;;;;3.42;2.00;;;20.20;9.60;;;;;;5006533;28;35957;-76
2022/07/14 03:17:34;;;;;;;2.17;1.98;;;20.20;9.70;;;;;;5006170;28;34207;-76
2022/07/14 03:20:00;;;;;;;2.30;2.10;;;20.20;9.70;;;;;;5006263;28;34061;-76
2022/07/14 03:22:26;;;;;;;2.60;2.35;;;20.20;9.80;;;;;;5022470;28;34521;-76
2022/07/14 03:24:52;;;;;;;3.72;2.13;;;20.10;9.90;;;;;;5039810;28;35302;-76
2022/07/14 03:27:18;;;;;;;2.17;2.00;;;20.20;9.90;;;;;;5040683;28;34130;-76
2022/07/14 03:29:44;;;;;;;2.78;1.90;;;20.10;10.00;;;;;;5022763;28;34135;-76
2022/07/14 03:32:10;;;;;;;2.55;2.30;;;20.10;10.00;;;;;;5006477;28;34144;-76
2022/07/14 03:34:36;;;;;;;3.13;2.22;;;20.10;10.10;;;;;;5005835;28;35702;-76
2022/07/14 03:37:02;;;;;;;2.75;2.33;;;20.00;10.20;;;;;;5006327;28;33993;-76
2022/07/14 03:39:28;;;;;;;2.50;2.13;;;20.00;10.30;;;;;;5006599;28;34041;-76
2022/07/14 03:41:54;;;;;;;3.03;2.15;;;20.00;10.50;;;;;;5040190;28;34528;-76
2022/07/14 03:44:19;;;;;;;2.90;1.90;;;20.00;10.50;;;;;;5040232;28;34416;-76
2022/07/14 03:46:45;;;;;;;2.55;2.35;;;19.90;10.50;;;;;;5022654;28;34432;-76
2022/07/14 03:49:11;;;;;;;2.97;2.10;;;19.90;10.50;;;;;;5041333;28;34123;-76
2022/07/14 03:51:45;;;;;;;3.60;2.30;;;19.90;10.60;;;;;;5058561;28;34412;-76
2022/07/14 03:54:11;;;;;;;3.33;2.28;;;19.80;11.60;;;;;;5025567;28;36000;-76
2022/07/14 03:56:37;;;;;;;2.20;1.98;;;19.70;10.60;;;;;;5043205;28;34386;-76
2022/07/14 03:59:03;;;;;;;4.50;2.10;;;19.70;10.70;;;;;;5025587;28;34242;-76
2022/07/14 04:01:29;;;;;;;2.60;2.17;;;19.70;10.80;;;;;;5058795;28;34107;-76
2022/07/14 04:03:55;;;;;;;3.13;2.17;;;19.60;10.80;;;;;;5042934;28;34408;-76
2022/07/14 04:06:21;;;;;;;5.40;2.10;;;19.60;10.90;;;;;;5025045;28;34088;-76
2022/07/14 04:08:47;;;;;;;3.38;2.20;;;19.60;11.00;;;;;;5025380;28;34173;-76
2022/07/14 04:11:14;;;;;;;3.25;2.40;;;19.60;11.10;;;;;;5009432;28;34266;-76
2022/07/14 04:13:40;;;;;;;3.05;2.40;;;19.60;11.20;;;;;;5042846;28;35477;-76
2022/07/14 04:16:06;;;;;;;2.47;2.20;;;19.60;11.20;;;;;;5025244;28;34233;-76
2022/07/14 04:18:32;;;;;;;4.68;2.28;;;19.60;11.20;;;;;;5025018;28;34231;-76
2022/07/14 04:20:58;;;;;;;3.60;2.40;;;19.60;11.30;;;;;;5025419;28;34496;-76
2022/07/14 04:23:24;;;;;;;5.13;2.45;;;19.60;11.20;;;;;;5025013;28;35928;-76
2022/07/14 04:25:50;;;;;;;2.72;2.28;;;19.60;11.30;;;;;;5129066;27;34121;-76
2022/07/14 04:28:17;;;;;;;4.15;2.20;;;19.70;11.90;;;;;;5163955;27;34144;-76
2022/07/14 04:30:43;;;;;;;2.67;2.38;;;19.70;11.40;;;;;;5146437;27;34199;-76
2022/07/14 04:33:09;;;;;;;2.88;2.50;;;19.70;11.40;;;;;;5163441;27;36231;-76
2022/07/14 04:35:36;;;;;;;7.82;2.60;;;19.70;11.30;;;;;;5163219;27;34291;-76
2022/07/14 04:38:03;;;;;;;3.80;2.45;;;19.70;11.30;;;;;;5164391;27;34205;-75
2022/07/14 04:40:29;;;;;;;2.40;2.20;;;19.70;11.30;;;;;;5135390;27;34293;-76
2022/07/14 04:42:55;;;;;;;3.45;2.42;;;19.70;11.30;;;;;;5125204;27;36099;-75
2022/07/14 04:45:22;;;;;;;2.58;2.38;;;19.80;11.30;;;;;;5127196;27;34273;-76
2022/07/14 04:47:49;;;;;;;6.25;2.28;;;19.70;11.50;;;;;;5109234;27;34094;-76
2022/07/14 04:52:56;;;;;;;8.43;2.55;;;19.80;11.60;;;;;;5125705;27;35193;-76
2022/07/14 04:55:22;;;;;;;2.60;2.40;;;19.90;11.60;;;;;;5126368;27;34198;-75
2022/07/14 04:57:48;;;;;;;2.70;2.30;;;19.90;11.50;;;;;;5108679;27;35269;-75
2022/07/14 05:00:14;;;;;;;3.70;2.60;;;19.90;11.40;;;;;;5126207;27;34569;-76
2022/07/14 05:02:40;;;;;;;4.03;2.53;;;20.00;11.40;;;;;;5124983;27;35038;-76
2022/07/14 05:05:06;;;;;;;2.60;2.40;;;20.10;11.40;;;;;;5124808;27;34407;-76
2022/07/14 05:07:33;;;;;;;3.35;2.30;;;20.20;11.40;;;;;;5108510;27;34284;-76
2022/07/14 05:09:59;;;;;;;3.83;2.53;;;20.30;11.40;;;;;;5124787;27;34498;-76
2022/07/14 05:12:25;;;;;;;5.45;2.80;;;20.40;11.30;;;;;;5124523;27;36115;-76
2022/07/14 05:14:51;;;;;;;4.93;2.85;;;20.40;11.10;;;;;;5124975;27;33991;-76
2022/07/14 05:17:18;;;;;;;6.97;2.40;;;20.60;11.10;;;;;;5107613;27;34134;-76
2022/07/14 05:19:46;;;;;;;5.28;2.33;;;20.60;11.00;;;;;;5125103;27;34312;-76
2022/07/14 05:22:12;;;;;;;4.13;2.53;;;20.70;11.00;;;;;;5125763;27;34201;-76
2022/07/14 05:24:38;;;;;;;6.18;2.42;;;20.80;11.10;;;;;;5126902;27;34284;-76
2022/07/14 05:27:04;;;;;;;3.95;2.22;;;20.80;10.90;;;;;;5125294;27;34286;-76
2022/07/14 05:29:31;;;;;;;6.63;2.60;;;20.90;11.00;;;;;;5126433;27;34261;-76
2022/07/14 05:31:58;;;;;;;2.85;2.65;;;21.00;10.90;;;;;;5026584;27;35118;-77
2022/07/14 05:34:24;;;;;;;2.63;2.42;;;21.00;10.90;;;;;;5036664;27;34300;-76
2022/07/14 05:36:50;;;;;;;3.13;2.78;;;21.10;10.90;;;;;;5054858;28;34171;-76
2022/07/14 05:39:16;;;;;;;2.60;2.40;;;21.20;10.70;;;;;;5022388;28;34679;-75
2022/07/14 05:44:26;;;;;;;2.85;2.42;;;21.30;10.60;;;;;;5146903;27;34141;-76
2022/07/14 05:46:52;;;;;;;5.35;2.72;;;21.30;10.50;;;;;;5127900;27;34511;-76
2022/07/14 05:49:18;;;;;;;3.97;2.47;;;21.40;10.40;;;;;;5110656;27;34580;-76
2022/07/14 05:51:44;;;;;;;2.75;2.55;;;21.40;10.40;;;;;;5064853;27;35652;-76
2022/07/14 05:54:10;;;;;;;3.80;2.55;;;21.50;10.40;;;;;;5023207;28;34041;-76
2022/07/14 05:56:36;;;;;;;2.58;2.28;;;21.50;10.30;;;;;;5043529;28;34317;-76
2022/07/14 05:59:02;;;;;;;9.63;2.95;;;21.60;10.40;;;;;;5050542;27;34018;-76
2022/07/14 06:01:28;;;;;;;7.85;2.92;;;21.60;10.40;;;;;;5027779;28;36341;-76
2022/07/14 06:03:56;;;;;;;6.32;2.90;;;21.60;10.30;;;;;;5061068;28;34180;-76
2022/07/14 06:06:23;;;;;;;4.72;2.95;;;21.70;10.40;;;;;;5043945;28;34200;-76
2022/07/14 06:08:49;;;;;;;8.93;3.05;;;21.80;10.30;;;;;;5121988;27;34513;-76
2022/07/14 06:11:16;;;;;;;4.47;2.88;;;21.90;10.30;;;;;;5127878;27;35233;-75
2022/07/14 06:13:45;;;;;;;4.22;2.72;;;22.10;10.20;;;;;;5043186;28;34146;-75
2022/07/14 06:16:13;;;;;;;4.00;3.30;;;22.20;9.90;;;;;;5123454;27;34161;-76
2022/07/14 06:18:39;;;;;;;3.10;2.80;;;22.30;9.90;;;;;;5068464;27;34332;-75
2022/07/14 06:21:08;;;;;;;3.22;2.92;;;22.30;9.60;;;;;;5043463;28;35631;-76
2022/07/14 06:23:35;;;;;;;3.15;2.85;;;22.40;10.00;;;;;;5027130;28;34287;-77
2022/07/14 06:26:08;;;;;;;5.38;3.20;;;22.50;9.60;;;;;;5105965;27;34166;-76
2022/07/14 06:28:34;;;;;;;5.70;3.10;;;22.60;9.40;;;;;;5128186;27;34685;-76
2022/07/14 06:31:00;;;;;;;7.15;3.00;;;22.70;9.10;;;;;;5133930;27;35019;-76
2022/07/14 06:33:26;;;;;;;5.88;2.83;;;22.70;8.90;;;;;;5085582;28;34317;-76
2022/07/14 06:35:52;;;;;;;5.13;2.67;;;22.90;8.90;;;;;;5120085;27;34146;-76
2022/07/14 06:38:18;;;;;;;5.78;3.10;;;23.00;8.60;;;;;;5027032;28;34529;-76
2022/07/14 06:40:44;;;;;;;5.10;3.40;;;23.30;8.20;;;;;;5043520;28;36378;-76
2022/07/14 06:43:11;;;;;;;5.15;3.13;;;23.80;7.40;;;;;;5026636;27;34048;-79
2022/07/14 06:45:37;;;;;;;3.90;2.80;;;24.40;6.50;;;;;;5043059;27;34175;-77
2022/07/14 06:48:03;;;;;;;3.45;2.78;;;24.60;5.70;;;;;;5047362;27;33954;-77
2022/07/14 06:50:29;;;;;;;4.07;2.97;;;24.70;5.30;;;;;;5144481;27;35678;-78
2022/07/14 06:52:56;;;;;;;14.20;3.30;;;24.70;5.10;;;;;;5127230;27;34589;-77
2022/07/14 06:55:22;;;;;;;3.90;2.78;;;24.80;4.90;;;;;;5037005;27;34360;-77
2022/07/14 06:57:48;;;;;;;3.60;2.90;;;25.10;4.70;;;;;;5022998;28;34187;-77
2022/07/14 07:00:15;;;;;;;4.65;2.90;;;25.40;4.10;;;;;;5122093;27;35697;-77
2022/07/14 07:02:41;;;;;;;5.63;3.58;;;25.80;3.20;;;;;;5004949;28;34037;-76
2022/07/14 07:07:51;;;;;;;3.58;3.03;;;27.00;2.10;;;;;;5064190;27;34274;-77
2022/07/14 07:10:17;;;;;;;8.32;3.40;;;27.20;1.50;;;;;;5002781;28;35726;-77
2022/07/14 07:13:02;;;;;;;4.38;2.92;;;27.70;1.00;;;;;;5003735;28;34975;-78
2022/07/14 07:15:28;;;;;;;3.53;2.72;;;28.10;1.00;;;;;;5068313;27;34145;-77
2022/07/14 07:17:54;;;;;;;3.03;2.72;;;28.20;1.00;;;;;;5114135;27;34059;-76
2022/07/14 07:20:20;;;;;;;5.13;2.80;;;28.20;1.00;;;;;;5072658;27;34267;-77
2022/07/14 07:22:46;;;;;;;4.20;3.05;;;28.20;1.00;;;;;;5042339;28;34307;-77
2022/07/14 07:25:12;;;;;;;6.63;3.03;;;28.10;1.00;;;;;;5039470;28;34083;-78
2022/07/14 07:27:38;;;;;;;6.22;3.08;;;28.00;1.00;;;;;;5024194;28;34287;-77
2022/07/14 07:30:05;;;;;;;4.82;3.13;;;28.00;1.00;;;;;;5006121;28;35552;-77
2022/07/14 07:32:31;;;;;;;5.57;2.92;;;28.10;1.00;;;;;;5024439;28;34133;-77
2022/07/14 07:34:57;;;;;;;4.80;3.47;;;28.30;1.00;;;;;;5023083;28;34130;-76
2022/07/14 07:37:23;;;;;;;3.60;3.30;;;28.60;1.00;;;;;;5023324;28;34368;-79
2022/07/14 07:39:49;;;;;;;5.65;2.97;;;28.70;1.00;;;;;;5014873;28;36357;-78
2022/07/14 07:42:14;;;;;;;5.70;3.00;;;29.00;1.00;;;;;;4987240;28;34083;-78
2022/07/14 07:44:41;;;;;;;8.48;3.20;;;29.10;1.00;;;;;;5003915;28;34198;-77
2022/07/14 07:47:06;;;;;;;4.13;3.50;;;29.00;1.00;;;;;;5035866;28;34366;-78
2022/07/14 07:49:32;;;;;;;4.07;2.80;;;29.00;1.00;;;;;;5036236;28;35860;-78
2022/07/14 07:52:01;;;;;;;4.50;3.00;;;28.90;1.00;;;;;;5003195;28;34141;-77
2022/07/14 07:54:28;;;;;;;3.58;3.25;;;28.80;1.00;;;;;;5035605;28;34147;-78
2022/07/14 07:56:55;;;;;;;4.55;2.63;;;28.80;1.00;;;;;;5036086;28;34098;-78
2022/07/14 07:59:21;;;;;;;6.57;2.83;;;29.00;1.00;;;;;;5035865;28;36005;-77
2022/07/14 08:01:47;;;;;;;9.00;3.08;;;29.10;1.00;;;;;;5035080;28;34390;-77
2022/07/14 08:04:14;;;;;;;4.55;3.08;;;29.50;1.00;;;;;;5019404;28;34261;-77
2022/07/14 08:06:41;;;;;;;6.05;3.28;;;29.90;1.00;;;;;;5018968;28;34388;-77
2022/07/14 08:09:11;;;;;;;5.18;3.50;;;30.40;1.00;;;;;;5003569;28;34940;-77
2022/07/14 08:11:39;;;;;;;5.93;3.63;;;30.70;1.00;;;;;;5035513;28;34187;-77
2022/07/14 08:14:04;;;;;;;3.90;3.40;;;30.50;1.00;;;;;;5034957;28;34240;-76
2022/07/14 08:16:30;;;;;;;5.88;2.97;;;30.50;1.00;;;;;;5036089;28;34150;-77
2022/07/14 08:18:56;;;;;;;7.15;3.00;;;30.80;1.00;;;;;;5018811;28;34907;-76
2022/07/14 08:21:23;;;;;;;6.13;2.97;;;31.00;1.00;;;;;;5040655;28;34176;-77
2022/07/14 08:23:50;;;;;;;5.65;3.28;;;31.20;1.00;;;;;;5042438;28;34463;-78
2022/07/14 08:26:16;;;;;;;5.43;3.33;;;31.30;1.00;;;;;;5024628;28;34392;-77
2022/07/14 08:28:42;;;;;;;6.90;4.25;;;31.30;1.00;;;;;;5039933;28;36018;-77
2022/07/14 08:31:08;;;;;;;6.00;2.97;;;31.50;1.00;;;;;;5024738;28;34108;-77
2022/07/14 08:33:34;;;;;;;5.53;3.15;;;31.70;1.00;;;;;;5024445;28;34262;-78
2022/07/14 08:36:00;;;;;;;4.90;3.05;;;31.70;1.00;;;;;;5041440;28;34090;-78
2022/07/14 08:38:26;;;;;;;5.20;2.92;;;31.60;1.00;;;;;;5023861;28;34196;-76
2022/07/14 08:40:52;;;;;;;4.13;2.90;;;31.60;1.00;;;;;;5023842;28;34287;-76
2022/07/14 08:43:18;;;;;;;5.32;2.90;;;31.90;1.00;;;;;;5056749;27;34330;-77
2022/07/14 08:45:45;;;;;;;4.65;2.25;;;31.80;1.00;;;;;;5024693;28;34255;-77
2022/07/14 08:48:11;;;;;;;3.85;2.92;;;31.80;1.00;;;;;;5006704;28;36427;-77
2022/07/14 08:50:38;;;;;;;5.25;3.17;;;31.60;1.00;;;;;;5056230;27;34506;-77
2022/07/14 08:53:04;;;;;;;3.78;2.70;;;31.60;1.00;;;;;;5041798;28;34207;-78
2022/07/14 08:55:30;;;;;;;3.90;2.70;;;31.90;1.00;;;;;;5058185;27;34199;-77
2022/07/14 08:57:57;;;;;;;6.65;2.90;;;32.10;1.00;;;;;;5040184;28;35664;-77
2022/07/14 09:00:23;;;;;;;7.95;2.55;;;32.20;1.00;;;;;;5040932;28;34142;-77
2022/07/14 09:02:52;;;;;;;6.03;2.70;;;32.40;1.00;;;;;;5056673;27;34166;-77
2022/07/14 09:05:18;;;;;;;3.92;2.55;;;32.70;1.00;;;;;;5040559;28;34317;-80
2022/07/14 09:07:44;;;;;;;6.03;2.50;;;32.70;1.00;;;;;;5040652;28;36050;-78
2022/07/14 09:10:15;;;;;;;3.80;2.35;;;32.90;1.00;;;;;;5057021;27;34036;-77
2022/07/14 09:12:41;;;;;;;3.92;2.40;;;32.80;1.00;;;;;;5023860;28;34388;-78
2022/07/14 09:17:54;;;;;;;5.95;2.30;;;32.90;1.00;;;;;;5040328;28;34704;-77
2022/07/14 09:20:21;;;;;;;4.72;2.75;;;32.90;1.00;;;;;;5007395;28;34433;-77
2022/07/14 09:22:47;;;;;;;6.13;2.80;;;33.10;1.00;;;;;;4825986;28;5137916;-77
2022/07/14 09:25:16;;;;;;;3.08;2.30;;;33.00;1.00;;;;;;5022382;28;35158;-76
2022/07/14 09:27:45;;;;;;;3.70;2.20;;;32.90;1.00;;;;;;5003017;28;34323;-77
2022/07/14 09:30:13;;;;;;;4.40;2.55;;;33.00;1.00;;;;;;5014441;28;34190;-77
2022/07/14 09:32:56;;;;;;;3.53;2.50;;;33.10;1.00;;;;;;4987677;28;34083;-78
2022/07/14 09:35:38;;;;;;;3.28;2.28;;;33.30;1.00;;;;;;5006296;28;34479;-77
2022/07/14 09:38:22;;;;;;;2.83;2.30;;;33.20;1.00;;;;;;5007118;28;35909;-78
2022/07/14 09:40:50;;;;;;;2.53;1.80;;;33.10;1.00;;;;;;4986941;28;34416;-78
2022/07/14 09:43:17;;;;;;;2.15;1.83;;;32.90;1.00;;;;;;5000422;28;34056;-77
2022/07/14 09:45:45;;;;;;;3.03;2.20;;;33.10;1.00;;;;;;4984461;28;34826;-79
2022/07/14 09:48:14;;;;;;;3.08;2.03;;;33.20;1.00;;;;;;5000320;28;35948;-79
2022/07/14 09:50:56;;;;;;;3.20;2.20;;;33.40;1.00;;;;;;4984642;28;34489;-77
2022/07/14 09:53:30;;;;;;;3.42;2.13;;;33.50;1.00;;;;;;4981426;28;34207;-77
2022/07/14 09:56:03;;;;;;;5.03;2.60;;;33.70;1.00;;;;;;5032225;28;34496;-78
2022/07/14 09:58:40;;;;;;;3.10;2.08;;;33.80;1.00;;;;;;5067719;27;35981;-77
2022/07/14 10:01:09;;;;;;;1.88;1.70;;;34.10;1.00;;;;;;5008964;28;34222;-77
2022/07/14 10:03:36;;;;;;;3.20;2.03;;;34.20;1.00;;;;;;5087315;28;34209;-77
2022/07/14 10:06:04;;;;;;;4.25;2.28;;;34.30;1.00;;;;;;5103531;28;34595;-79
2022/07/14 10:08:34;;;;;;;4.80;1.85;;;34.50;1.00;;;;;;5052099;27;34510;-78
2022/07/14 10:11:03;;;;;;;2.78;1.77;;;34.40;1.00;;;;;;4969296;28;34252;-77
2022/07/14 10:13:30;;;;;;;2.47;1.85;;;34.40;1.00;;;;;;4969059;28;34173;-77
2022/07/14 10:15:57;;;;;;;4.53;1.92;;;34.50;1.00;;;;;;5052426;28;34097;-79
2022/07/14 10:18:25;;;;;;;2.42;1.60;;;34.50;1.00;;;;;;5050108;28;35589;-81
2022/07/14 10:20:54;;;;;;;5.20;2.05;;;34.50;1.00;;;;;;5024587;28;34421;-79
2022/07/14 10:23:21;;;;;;;2.38;1.90;;;34.50;1.00;;;;;;5068575;27;34295;-78
2022/07/14 10:25:51;;;;;;;10.25;2.30;;;34.70;1.00;;;;;;5105106;27;34346;-78
2022/07/14 10:28:18;;;;;;;2.63;1.80;;;34.50;1.00;;;;;;5036939;27;34328;-77
2022/07/14 10:31:06;;;;;;;2.60;2.22;;;34.60;1.00;;;;;;5025750;28;34113;-78
2022/07/14 10:33:52;;;;;;;1.88;1.60;;;34.60;1.00;;;;;;5007503;28;34348;-77
2022/07/14 10:36:27;;;;;;;5.50;1.85;;;34.50;1.00;;;;;;5041274;28;34610;-78
2022/07/14 10:39:23;;;;;;;2.50;1.77;;;34.40;1.00;;;;;;5041526;28;34255;-77
2022/07/14 10:42:16;;;;;;;1.67;1.50;;;34.10;1.00;;;;;;5056394;28;34130;-77
2022/07/14 10:44:45;;;;;;;3.78;1.55;;;34.10;1.00;;;;;;5024476;28;34083;-79
2022/07/14 10:47:14;;;;;;;3.15;1.60;;;34.10;1.00;;;;;;5057065;28;34453;-77
2022/07/14 10:50:10;;;;;;;3.13;2.15;;;34.10;1.00;;;;;;5006654;28;35779;-79
2022/07/14 10:52:49;;;;;;;3.08;1.75;;;34.40;1.00;;;;;;5056996;28;34151;-79
2022/07/14 10:55:18;;;;;;;2.97;1.55;;;34.50;1.00;;;;;;5024930;28;34207;-78
2022/07/14 10:58:15;;;;;;;4.03;1.65;;;34.50;1.00;;;;;;5010141;28;35636;-78
2022/07/14 11:00:58;;;;;;;1.52;1.40;;;34.40;1.00;;;;;;5011388;28;36496;-77
2022/07/14 11:03:26;;;;;;;1.58;1.48;;;34.20;1.00;;;;;;5043567;27;33668;-78
2022/07/14 11:06:13;;;;;;;2.25;1.27;;;34.20;1.00;;;;;;5027779;28;34314;-79
2022/07/14 11:08:41;;;;;;;3.92;1.48;;;34.20;1.00;;;;;;5023136;28;34882;-78
2022/07/14 11:11:23;;;;;;;3.88;1.52;;;34.20;1.00;;;;;;5005906;28;35225;-77
2022/07/14 11:14:06;;;;;;;1.33;1.23;;;34.10;1.00;;;;;;5005935;28;34238;-78
2022/07/14 11:16:55;;;;;;;2.15;1.00;;;34.20;1.00;;;;;;5018353;28;34260;-77
2022/07/14 11:19:32;;;;;;;1.27;1.17;;;34.20;1.00;;;;;;5027011;28;34157;-79
2022/07/14 11:22:21;;;;;;;1.33;1.23;;;34.40;1.00;;;;;;5000358;28;35949;-78
2022/07/14 11:24:51;;;;;;;1.30;1.20;;;34.60;1.00;;;;;;4987775;28;34116;-79
2022/07/14 11:27:36;;;;;;;1.92;1.33;;;34.80;1.00;;;;;;4988111;28;34147;-79
2022/07/14 11:30:25;;;;;;;1.30;1.20;;;34.90;1.00;;;;;;5003707;28;34311;-78
2022/07/14 11:32:59;;;;;;;1.33;1.23;;;35.00;1.00;;;;;;4978178;28;36506;-78
2022/07/14 11:38:25;;;;;;;1.40;1.30;;;34.90;1.00;;;;;;5001234;28;34275;-79
2022/07/14 11:40:53;;;;;;;1.80;1.20;;;34.80;1.00;;;;;;5003853;28;34621;-77
2022/07/14 11:43:40;;;;;;;2.38;1.05;;;34.80;1.00;;;;;;5002845;28;36557;-78
2022/07/14 11:46:09;;;;;;;1.88;1.40;;;34.90;1.00;;;;;;4990711;28;34422;-79
2022/07/14 11:48:40;;;;;;;2.25;1.20;;;34.90;1.00;;;;;;4987605;28;34081;-80
2022/07/14 11:51:10;;;;;;;1.30;1.20;;;35.00;1.00;;;;;;5003911;28;34122;-78
2022/07/14 11:53:37;;;;;;;2.67;1.08;;;35.10;1.00;;;;;;4993006;28;36385;-79
2022/07/14 11:56:06;;;;;;;3.03;1.15;;;35.30;1.00;;;;;;4968850;28;34349;-79
2022/07/14 11:58:33;;;;;;;1.95;1.10;;;35.50;1.00;;;;;;4968133;28;34078;-79
2022/07/14 12:01:00;;;;;;;1.63;1.33;;;35.70;1.00;;;;;;4985110;28;34317;-80
2022/07/14 12:03:27;;;;;;;1.85;1.10;;;35.70;1.00;;;;;;4967557;28;35542;-77
2022/07/14 12:05:55;;;;;;;2.53;1.20;;;35.60;1.00;;;;;;4968029;28;34496;-78
2022/07/14 12:08:23;;;;;;;1.13;0.93;;;35.20;1.00;;;;;;4974398;28;34249;-78
2022/07/14 12:10:49;;;;;;;1.48;1.10;;;34.90;1.00;;;;;;5003151;28;34206;-78
2022/07/14 12:13:16;;;;;;;1.38;1.15;;;34.50;1.00;;;;;;5004758;28;34557;-81
2022/07/14 12:15:41;;;;;;;6.55;1.33;;;34.10;1.00;;;;;;4987417;28;34093;-81
2022/07/14 12:18:09;;;;;;;1.65;1.25;;;33.90;1.00;;;;;;5003638;28;34303;-79
2022/07/14 12:20:42;;;;;;;1.30;1.20;;;33.80;1.00;;;;;;5003825;28;34170;-81
2022/07/14 12:23:09;;;;;;;1.25;1.15;;;33.80;1.00;;;;;;5014884;28;35766;-77
2022/07/14 12:25:40;;;;;;;9.90;1.67;;;33.70;1.00;;;;;;5003571;28;33976;-80
2022/07/14 12:28:09;;;;;;;3.92;1.20;;;33.50;1.00;;;;;;5007815;28;34431;-78
2022/07/14 12:30:52;;;;;;;1.60;1.10;;;33.30;1.00;;;;;;5015653;28;34314;-81
2022/07/14 12:33:25;;;;;;;2.85;1.10;;;33.00;1.00;;;;;;5035733;28;36286;-79
2022/07/14 12:35:55;;;;;;;5.18;1.40;;;32.90;1.00;;;;;;5002847;28;34070;-80
2022/07/14 12:38:21;;;;;;;1.30;1.20;;;32.80;1.00;;;;;;5003802;28;34190;-78
2022/07/14 12:40:57;;;;;;;4.72;1.23;;;32.70;1.00;;;;;;5035967;28;34056;-80
2022/07/14 12:43:23;;;;;;;4.22;1.55;;;32.70;1.00;;;;;;5024229;28;36599;-80
2022/07/14 12:46:09;;;;;;;1.60;1.17;;;32.60;1.00;;;;;;5005841;28;34259;-80
2022/07/14 12:48:57;;;;;;;2.03;1.08;;;32.40;1.00;;;;;;5023031;28;34131;-79
2022/07/14 12:51:26;;;;;;;1.05;0.95;;;32.30;1.00;;;;;;5007965;28;34076;-77
2022/07/14 12:54:16;;;;;;;3.15;1.25;;;32.30;1.00;;;;;;5022051;28;36063;-79
2022/07/14 12:56:51;;;;;;;1.63;0.95;;;32.30;1.00;;;;;;5035112;28;34076;-78
2022/07/14 12:59:21;;;;;;;2.08;0.90;;;32.30;1.00;;;;;;4997256;28;34198;-81
2022/07/14 13:02:09;;;;;;;2.15;1.08;;;32.30;1.00;;;;;;5024124;28;34268;-79
2022/07/14 13:04:44;;;;;;;4.63;1.20;;;32.30;1.00;;;;;;5005958;28;35516;-77
2022/07/14 13:07:22;;;;;;;1.65;1.15;;;32.20;1.00;;;;;;5021552;28;34198;-78
2022/07/14 13:10:06;;;;;;;1.73;1.20;;;32.20;1.00;;;;;;5022657;28;34397;-76
2022/07/14 13:12:33;;;;;;;1.65;1.08;;;32.20;1.00;;;;;;5022868;28;34034;-79
2022/07/14 13:15:02;;;;;;;1.67;1.10;;;32.20;1.00;;;;;;5022045;28;34475;-78
2022/07/14 13:17:58;;;;;;;1.85;1.30;;;32.40;1.00;;;;;;5006375;28;34451;-80
2022/07/14 13:20:48;;;;;;;2.65;1.00;;;32.50;1.00;;;;;;5023837;28;34276;-78
2022/07/14 13:23:32;;;;;;;2.20;1.10;;;32.30;1.00;;;;;;5037952;28;34164;-79